sensor_id;sensor_type;location;lat;lon;timestamp;P1;durP1;ratioP1;P2;durP2;ratioP2
53411;SDS011;39307;52.870;13.660;2022-11-14T00:00:08;77.38;;;50.97;;
53411;SDS011;39307;52.870;13.660;2022-11-14T00:02:36;80.53;;;51.13;;
53411;SDS011;39307;52.870;13.660;2022-11-14T00:05:03;79.22;;;51.58;;
53411;SDS011;39307;52.870;13.660;2022-11-14T00:07:30;77.38;;;52.03;;
53411;SDS011;39307;52.870;13.660;2022-11-14T00:09:57;75.78;;;50.42;;
53411;SDS011;39307;52.870;13.660;2022-11-14T00:12:23;78.30;;;52.80;;
53411;SDS011;39307;52.870;13.660;2022-11-14T00:14:50;79.18;;;52.28;;
53411;SDS011;39307;52.870;13.660;2022-11-14T00:17:16;77.90;;;51.55;;
53411;SDS011;39307;52.870;13.660;2022-11-14T00:19:43;78.28;;;52.55;;
53411;SDS011;39307;52.870;13.660;2022-11-14T00:22:09;86.47;;;54.13;;
53411;SDS011;39307;52.870;13.660;2022-11-14T00:24:35;82.80;;;54.92;;
53411;SDS011;39307;52.870;13.660;2022-11-14T00:27:01;81.60;;;53.67;;
53411;SDS011;39307;52.870;13.660;2022-11-14T00:29:28;82.03;;;55.28;;
53411;SDS011;39307;52.870;13.660;2022-11-14T00:31:54;84.22;;;55.28;;
53411;SDS011;39307;52.870;13.660;2022-11-14T00:34:20;85.47;;;56.55;;
53411;SDS011;39307;52.870;13.660;2022-11-14T00:36:46;87.50;;;54.78;;
53411;SDS011;39307;52.870;13.660;2022-11-14T00:39:13;82.95;;;54.10;;
53411;SDS011;39307;52.870;13.660;2022-11-14T00:41:40;83.25;;;54.78;;
53411;SDS011;39307;52.870;13.660;2022-11-14T00:44:06;83.53;;;53.85;;
53411;SDS011;39307;52.870;13.660;2022-11-14T00:46:33;87.50;;;55.33;;
53411;SDS011;39307;52.870;13.660;2022-11-14T00:48:59;89.93;;;55.30;;
53411;SDS011;39307;52.870;13.660;2022-11-14T00:51:25;88.47;;;55.97;;
53411;SDS011;39307;52.870;13.660;2022-11-14T00:53:52;85.75;;;54.72;;
53411;SDS011;39307;52.870;13.660;2022-11-14T00:56:18;83.67;;;53.33;;
53411;SDS011;39307;52.870;13.660;2022-11-14T00:58:44;82.30;;;52.72;;
53411;SDS011;39307;52.870;13.660;2022-11-14T01:01:10;87.00;;;55.83;;
53411;SDS011;39307;52.870;13.660;2022-11-14T01:03:36;88.15;;;54.75;;
53411;SDS011;39307;52.870;13.660;2022-11-14T01:06:06;85.93;;;54.28;;
53411;SDS011;39307;52.870;13.660;2022-11-14T01:08:34;85.18;;;53.45;;
53411;SDS011;39307;52.870;13.660;2022-11-14T01:11:00;88.53;;;55.30;;
53411;SDS011;39307;52.870;13.660;2022-11-14T01:13:35;88.35;;;55.03;;
53411;SDS011;39307;52.870;13.660;2022-11-14T01:16:01;90.43;;;55.63;;
53411;SDS011;39307;52.870;13.660;2022-11-14T01:18:28;83.13;;;51.92;;
53411;SDS011;39307;52.870;13.660;2022-11-14T01:20:54;84.25;;;52.03;;
53411;SDS011;39307;52.870;13.660;2022-11-14T01:23:20;83.93;;;52.05;;
53411;SDS011;39307;52.870;13.660;2022-11-14T01:25:46;90.22;;;55.08;;
53411;SDS011;39307;52.870;13.660;2022-11-14T01:28:16;90.53;;;55.05;;
53411;SDS011;39307;52.870;13.660;2022-11-14T01:30:44;86.63;;;51.72;;
53411;SDS011;39307;52.870;13.660;2022-11-14T01:33:10;89.65;;;53.55;;
53411;SDS011;39307;52.870;13.660;2022-11-14T01:35:37;88.95;;;54.28;;
53411;SDS011;39307;52.870;13.660;2022-11-14T01:38:03;87.00;;;53.20;;
53411;SDS011;39307;52.870;13.660;2022-11-14T01:40:30;87.80;;;52.80;;
53411;SDS011;39307;52.870;13.660;2022-11-14T01:45:52;88.00;;;53.15;;
53411;SDS011;39307;52.870;13.660;2022-11-14T01:48:26;90.97;;;53.70;;
53411;SDS011;39307;52.870;13.660;2022-11-14T01:51:19;93.18;;;54.22;;
53411;SDS011;39307;52.870;13.660;2022-11-14T01:53:51;91.60;;;54.03;;
53411;SDS011;39307;52.870;13.660;2022-11-14T01:56:27;87.17;;;52.23;;
53411;SDS011;39307;52.870;13.660;2022-11-14T01:59:02;82.13;;;50.53;;
53411;SDS011;39307;52.870;13.660;2022-11-14T02:01:33;89.22;;;53.20;;
53411;SDS011;39307;52.870;13.660;2022-11-14T02:04:01;88.80;;;53.55;;
53411;SDS011;39307;52.870;13.660;2022-11-14T02:06:31;90.55;;;53.45;;
53411;SDS011;39307;52.870;13.660;2022-11-14T02:09:02;90.43;;;52.25;;
53411;SDS011;39307;52.870;13.660;2022-11-14T02:11:32;88.22;;;52.28;;
53411;SDS011;39307;52.870;13.660;2022-11-14T02:14:02;95.07;;;53.40;;
53411;SDS011;39307;52.870;13.660;2022-11-14T02:16:29;93.50;;;53.10;;
53411;SDS011;39307;52.870;13.660;2022-11-14T02:18:55;85.43;;;51.73;;
53411;SDS011;39307;52.870;13.660;2022-11-14T02:21:22;94.50;;;54.50;;
53411;SDS011;39307;52.870;13.660;2022-11-14T02:23:48;95.85;;;55.20;;
53411;SDS011;39307;52.870;13.660;2022-11-14T02:26:17;92.40;;;54.33;;
53411;SDS011;39307;52.870;13.660;2022-11-14T02:28:45;95.97;;;55.05;;
53411;SDS011;39307;52.870;13.660;2022-11-14T02:31:11;89.78;;;52.60;;
53411;SDS011;39307;52.870;13.660;2022-11-14T02:33:38;93.82;;;52.88;;
53411;SDS011;39307;52.870;13.660;2022-11-14T02:36:05;96.68;;;55.05;;
53411;SDS011;39307;52.870;13.660;2022-11-14T02:38:31;98.78;;;56.08;;
53411;SDS011;39307;52.870;13.660;2022-11-14T02:41:01;96.45;;;55.55;;
53411;SDS011;39307;52.870;13.660;2022-11-14T02:43:27;97.53;;;54.67;;
53411;SDS011;39307;52.870;13.660;2022-11-14T02:45:53;93.07;;;53.50;;
53411;SDS011;39307;52.870;13.660;2022-11-14T02:48:20;95.70;;;54.50;;
53411;SDS011;39307;52.870;13.660;2022-11-14T02:50:49;93.95;;;53.70;;
53411;SDS011;39307;52.870;13.660;2022-11-14T02:53:15;93.00;;;54.50;;
53411;SDS011;39307;52.870;13.660;2022-11-14T02:55:42;98.03;;;54.95;;
53411;SDS011;39307;52.870;13.660;2022-11-14T02:58:08;99.43;;;56.22;;
53411;SDS011;39307;52.870;13.660;2022-11-14T03:00:34;95.95;;;54.13;;
53411;SDS011;39307;52.870;13.660;2022-11-14T03:03:00;103.85;;;57.08;;
53411;SDS011;39307;52.870;13.660;2022-11-14T03:05:26;97.15;;;55.53;;
53411;SDS011;39307;52.870;13.660;2022-11-14T03:07:53;92.83;;;53.70;;
53411;SDS011;39307;52.870;13.660;2022-11-14T03:10:20;105.60;;;57.53;;
53411;SDS011;39307;52.870;13.660;2022-11-14T03:12:47;102.68;;;55.75;;
53411;SDS011;39307;52.870;13.660;2022-11-14T03:15:17;97.43;;;55.38;;
53411;SDS011;39307;52.870;13.660;2022-11-14T03:17:44;100.45;;;55.58;;
53411;SDS011;39307;52.870;13.660;2022-11-14T03:20:10;101.07;;;55.93;;
53411;SDS011;39307;52.870;13.660;2022-11-14T03:22:36;101.30;;;56.20;;
53411;SDS011;39307;52.870;13.660;2022-11-14T03:25:02;96.15;;;55.53;;
53411;SDS011;39307;52.870;13.660;2022-11-14T03:27:29;100.95;;;55.58;;
53411;SDS011;39307;52.870;13.660;2022-11-14T03:29:55;105.05;;;57.85;;
53411;SDS011;39307;52.870;13.660;2022-11-14T03:32:21;101.60;;;57.13;;
53411;SDS011;39307;52.870;13.660;2022-11-14T03:34:47;104.00;;;59.35;;
53411;SDS011;39307;52.870;13.660;2022-11-14T03:37:14;101.65;;;57.05;;
53411;SDS011;39307;52.870;13.660;2022-11-14T03:39:40;105.63;;;58.70;;
53411;SDS011;39307;52.870;13.660;2022-11-14T03:42:06;108.50;;;58.40;;
53411;SDS011;39307;52.870;13.660;2022-11-14T03:44:32;105.95;;;57.33;;
53411;SDS011;39307;52.870;13.660;2022-11-14T03:46:58;99.53;;;55.08;;
53411;SDS011;39307;52.870;13.660;2022-11-14T03:49:25;106.45;;;58.08;;
53411;SDS011;39307;52.870;13.660;2022-11-14T03:51:51;106.97;;;59.38;;
53411;SDS011;39307;52.870;13.660;2022-11-14T03:54:17;104.37;;;57.13;;
53411;SDS011;39307;52.870;13.660;2022-11-14T03:56:43;100.05;;;56.53;;
53411;SDS011;39307;52.870;13.660;2022-11-14T03:59:10;104.45;;;56.53;;
53411;SDS011;39307;52.870;13.660;2022-11-14T04:01:36;107.47;;;58.40;;
53411;SDS011;39307;52.870;13.660;2022-11-14T04:04:02;101.40;;;56.80;;
53411;SDS011;39307;52.870;13.660;2022-11-14T04:06:29;109.53;;;58.38;;
53411;SDS011;39307;52.870;13.660;2022-11-14T04:08:55;102.03;;;54.95;;
53411;SDS011;39307;52.870;13.660;2022-11-14T04:11:21;97.82;;;53.95;;
53411;SDS011;39307;52.870;13.660;2022-11-14T04:13:47;104.18;;;56.50;;
53411;SDS011;39307;52.870;13.660;2022-11-14T04:16:13;102.75;;;56.67;;
53411;SDS011;39307;52.870;13.660;2022-11-14T04:18:40;109.80;;;56.87;;
53411;SDS011;39307;52.870;13.660;2022-11-14T04:21:06;111.30;;;59.55;;
53411;SDS011;39307;52.870;13.660;2022-11-14T04:23:32;107.10;;;58.25;;
53411;SDS011;39307;52.870;13.660;2022-11-14T04:25:58;109.88;;;58.65;;
53411;SDS011;39307;52.870;13.660;2022-11-14T04:28:24;106.68;;;56.17;;
53411;SDS011;39307;52.870;13.660;2022-11-14T04:30:51;109.03;;;58.53;;
53411;SDS011;39307;52.870;13.660;2022-11-14T04:33:17;114.63;;;60.47;;
53411;SDS011;39307;52.870;13.660;2022-11-14T04:35:43;109.80;;;58.00;;
53411;SDS011;39307;52.870;13.660;2022-11-14T04:38:09;105.65;;;56.83;;
53411;SDS011;39307;52.870;13.660;2022-11-14T04:40:35;119.40;;;62.05;;
53411;SDS011;39307;52.870;13.660;2022-11-14T04:43:02;113.57;;;58.67;;
53411;SDS011;39307;52.870;13.660;2022-11-14T04:45:28;117.78;;;59.67;;
53411;SDS011;39307;52.870;13.660;2022-11-14T04:47:54;114.43;;;59.00;;
53411;SDS011;39307;52.870;13.660;2022-11-14T04:50:20;113.67;;;58.87;;
53411;SDS011;39307;52.870;13.660;2022-11-14T04:52:49;111.63;;;57.83;;
53411;SDS011;39307;52.870;13.660;2022-11-14T04:55:17;116.65;;;59.05;;
53411;SDS011;39307;52.870;13.660;2022-11-14T04:57:43;115.97;;;58.45;;
53411;SDS011;39307;52.870;13.660;2022-11-14T05:00:09;106.63;;;55.72;;
53411;SDS011;39307;52.870;13.660;2022-11-14T05:02:36;110.78;;;56.60;;
53411;SDS011;39307;52.870;13.660;2022-11-14T05:05:02;107.70;;;55.63;;
53411;SDS011;39307;52.870;13.660;2022-11-14T05:07:28;112.22;;;56.88;;
53411;SDS011;39307;52.870;13.660;2022-11-14T05:09:54;107.73;;;56.70;;
53411;SDS011;39307;52.870;13.660;2022-11-14T05:12:21;104.60;;;54.78;;
53411;SDS011;39307;52.870;13.660;2022-11-14T05:14:47;108.18;;;55.55;;
53411;SDS011;39307;52.870;13.660;2022-11-14T05:17:13;101.88;;;53.30;;
53411;SDS011;39307;52.870;13.660;2022-11-14T05:19:40;105.60;;;54.40;;
53411;SDS011;39307;52.870;13.660;2022-11-14T05:22:06;105.15;;;54.22;;
53411;SDS011;39307;52.870;13.660;2022-11-14T05:24:32;106.15;;;55.60;;
53411;SDS011;39307;52.870;13.660;2022-11-14T05:26:58;107.95;;;56.05;;
53411;SDS011;39307;52.870;13.660;2022-11-14T05:29:24;108.00;;;59.13;;
53411;SDS011;39307;52.870;13.660;2022-11-14T05:31:51;104.63;;;55.95;;
53411;SDS011;39307;52.870;13.660;2022-11-14T05:34:17;106.90;;;54.47;;
53411;SDS011;39307;52.870;13.660;2022-11-14T05:36:43;102.72;;;56.10;;
53411;SDS011;39307;52.870;13.660;2022-11-14T05:39:09;111.15;;;56.65;;
53411;SDS011;39307;52.870;13.660;2022-11-14T05:41:35;107.65;;;55.25;;
53411;SDS011;39307;52.870;13.660;2022-11-14T05:44:04;102.95;;;53.60;;
53411;SDS011;39307;52.870;13.660;2022-11-14T05:46:31;99.23;;;53.20;;
53411;SDS011;39307;52.870;13.660;2022-11-14T05:48:57;101.28;;;54.13;;
53411;SDS011;39307;52.870;13.660;2022-11-14T05:51:24;107.28;;;56.85;;
53411;SDS011;39307;52.870;13.660;2022-11-14T05:53:50;104.40;;;55.83;;
53411;SDS011;39307;52.870;13.660;2022-11-14T05:56:16;106.03;;;54.93;;
53411;SDS011;39307;52.870;13.660;2022-11-14T05:58:42;107.93;;;55.83;;
53411;SDS011;39307;52.870;13.660;2022-11-14T06:01:12;106.50;;;55.10;;
53411;SDS011;39307;52.870;13.660;2022-11-14T06:03:40;106.10;;;53.88;;
53411;SDS011;39307;52.870;13.660;2022-11-14T06:06:08;108.00;;;54.92;;
53411;SDS011;39307;52.870;13.660;2022-11-14T06:08:36;105.75;;;55.55;;
53411;SDS011;39307;52.870;13.660;2022-11-14T06:11:03;104.43;;;55.65;;
53411;SDS011;39307;52.870;13.660;2022-11-14T06:13:34;103.03;;;54.75;;
53411;SDS011;39307;52.870;13.660;2022-11-14T06:16:01;108.13;;;54.70;;
53411;SDS011;39307;52.870;13.660;2022-11-14T06:18:29;104.15;;;54.58;;
53411;SDS011;39307;52.870;13.660;2022-11-14T06:21:03;106.13;;;53.55;;
53411;SDS011;39307;52.870;13.660;2022-11-14T06:23:37;106.28;;;55.05;;
53411;SDS011;39307;52.870;13.660;2022-11-14T06:26:04;107.40;;;56.27;;
53411;SDS011;39307;52.870;13.660;2022-11-14T06:28:32;106.32;;;55.58;;
53411;SDS011;39307;52.870;13.660;2022-11-14T06:31:02;110.40;;;57.08;;
53411;SDS011;39307;52.870;13.660;2022-11-14T06:33:32;106.97;;;55.85;;
53411;SDS011;39307;52.870;13.660;2022-11-14T06:36:00;100.65;;;53.33;;
53411;SDS011;39307;52.870;13.660;2022-11-14T06:38:32;111.07;;;57.10;;
53411;SDS011;39307;52.870;13.660;2022-11-14T06:41:00;101.63;;;53.37;;
53411;SDS011;39307;52.870;13.660;2022-11-14T06:43:35;104.32;;;54.85;;
53411;SDS011;39307;52.870;13.660;2022-11-14T06:46:07;96.57;;;53.65;;
53411;SDS011;39307;52.870;13.660;2022-11-14T06:48:35;103.00;;;54.57;;
53411;SDS011;39307;52.870;13.660;2022-11-14T06:51:02;96.73;;;53.27;;
53411;SDS011;39307;52.870;13.660;2022-11-14T06:53:30;99.53;;;52.57;;
53411;SDS011;39307;52.870;13.660;2022-11-14T06:55:58;99.73;;;53.10;;
53411;SDS011;39307;52.870;13.660;2022-11-14T06:58:26;105.40;;;55.72;;
53411;SDS011;39307;52.870;13.660;2022-11-14T07:01:01;99.78;;;54.60;;
53411;SDS011;39307;52.870;13.660;2022-11-14T07:03:32;98.47;;;54.33;;
53411;SDS011;39307;52.870;13.660;2022-11-14T07:05:59;105.75;;;55.58;;
53411;SDS011;39307;52.870;13.660;2022-11-14T07:08:26;100.88;;;55.28;;
53411;SDS011;39307;52.870;13.660;2022-11-14T07:10:52;97.38;;;52.45;;
53411;SDS011;39307;52.870;13.660;2022-11-14T07:13:18;104.93;;;55.95;;
53411;SDS011;39307;52.870;13.660;2022-11-14T07:15:51;102.30;;;56.73;;
53411;SDS011;39307;52.870;13.660;2022-11-14T07:18:17;102.90;;;54.95;;
53411;SDS011;39307;52.870;13.660;2022-11-14T07:20:44;105.95;;;55.33;;
53411;SDS011;39307;52.870;13.660;2022-11-14T07:23:11;104.40;;;55.92;;
53411;SDS011;39307;52.870;13.660;2022-11-14T07:25:38;99.68;;;53.22;;
53411;SDS011;39307;52.870;13.660;2022-11-14T07:28:04;99.88;;;54.25;;
53411;SDS011;39307;52.870;13.660;2022-11-14T07:30:31;107.57;;;56.92;;
53411;SDS011;39307;52.870;13.660;2022-11-14T07:32:58;106.03;;;56.10;;
53411;SDS011;39307;52.870;13.660;2022-11-14T07:35:24;105.25;;;55.58;;
53411;SDS011;39307;52.870;13.660;2022-11-14T07:37:51;107.43;;;57.67;;
53411;SDS011;39307;52.870;13.660;2022-11-14T07:40:17;105.25;;;55.08;;
53411;SDS011;39307;52.870;13.660;2022-11-14T07:42:43;100.25;;;54.03;;
53411;SDS011;39307;52.870;13.660;2022-11-14T07:45:10;97.70;;;53.33;;
53411;SDS011;39307;52.870;13.660;2022-11-14T07:47:36;96.25;;;53.08;;
53411;SDS011;39307;52.870;13.660;2022-11-14T07:50:02;94.53;;;52.83;;
53411;SDS011;39307;52.870;13.660;2022-11-14T07:52:28;98.63;;;53.72;;
53411;SDS011;39307;52.870;13.660;2022-11-14T07:54:55;100.90;;;55.17;;
53411;SDS011;39307;52.870;13.660;2022-11-14T07:57:21;98.80;;;55.30;;
53411;SDS011;39307;52.870;13.660;2022-11-14T07:59:47;99.93;;;54.33;;
53411;SDS011;39307;52.870;13.660;2022-11-14T08:02:14;96.60;;;53.77;;
53411;SDS011;39307;52.870;13.660;2022-11-14T08:04:40;101.22;;;55.33;;
53411;SDS011;39307;52.870;13.660;2022-11-14T08:07:07;94.80;;;54.30;;
53411;SDS011;39307;52.870;13.660;2022-11-14T08:09:33;95.83;;;53.83;;
53411;SDS011;39307;52.870;13.660;2022-11-14T08:11:59;95.88;;;55.90;;
53411;SDS011;39307;52.870;13.660;2022-11-14T08:14:26;95.97;;;55.30;;
53411;SDS011;39307;52.870;13.660;2022-11-14T08:16:52;89.78;;;52.50;;
53411;SDS011;39307;52.870;13.660;2022-11-14T08:19:18;93.32;;;53.15;;
53411;SDS011;39307;52.870;13.660;2022-11-14T08:21:44;93.53;;;53.65;;
53411;SDS011;39307;52.870;13.660;2022-11-14T08:24:11;91.53;;;51.57;;
53411;SDS011;39307;52.870;13.660;2022-11-14T08:26:37;91.55;;;51.25;;
53411;SDS011;39307;52.870;13.660;2022-11-14T08:29:03;96.28;;;53.28;;
53411;SDS011;39307;52.870;13.660;2022-11-14T08:31:29;94.38;;;53.42;;
53411;SDS011;39307;52.870;13.660;2022-11-14T08:33:55;96.13;;;53.38;;
53411;SDS011;39307;52.870;13.660;2022-11-14T08:36:21;93.03;;;53.35;;
53411;SDS011;39307;52.870;13.660;2022-11-14T08:38:48;92.03;;;53.30;;
53411;SDS011;39307;52.870;13.660;2022-11-14T08:41:14;96.10;;;54.13;;
53411;SDS011;39307;52.870;13.660;2022-11-14T08:43:40;84.28;;;50.05;;
53411;SDS011;39307;52.870;13.660;2022-11-14T08:46:06;91.10;;;52.07;;
53411;SDS011;39307;52.870;13.660;2022-11-14T08:48:32;87.37;;;50.73;;
53411;SDS011;39307;52.870;13.660;2022-11-14T08:51:02;85.45;;;49.15;;
53411;SDS011;39307;52.870;13.660;2022-11-14T08:53:29;87.47;;;50.50;;
53411;SDS011;39307;52.870;13.660;2022-11-14T08:55:56;83.43;;;48.55;;
53411;SDS011;39307;52.870;13.660;2022-11-14T08:58:22;84.43;;;48.78;;
53411;SDS011;39307;52.870;13.660;2022-11-14T09:00:48;84.13;;;49.00;;
53411;SDS011;39307;52.870;13.660;2022-11-14T09:03:14;86.22;;;49.80;;
53411;SDS011;39307;52.870;13.660;2022-11-14T09:05:41;78.90;;;47.13;;
53411;SDS011;39307;52.870;13.660;2022-11-14T09:08:07;81.88;;;48.22;;
53411;SDS011;39307;52.870;13.660;2022-11-14T09:10:33;82.65;;;47.60;;
53411;SDS011;39307;52.870;13.660;2022-11-14T09:13:00;77.13;;;45.53;;
53411;SDS011;39307;52.870;13.660;2022-11-14T09:15:27;80.13;;;46.20;;
53411;SDS011;39307;52.870;13.660;2022-11-14T09:17:54;77.85;;;45.53;;
53411;SDS011;39307;52.870;13.660;2022-11-14T09:20:24;79.07;;;45.40;;
53411;SDS011;39307;52.870;13.660;2022-11-14T09:22:51;78.80;;;44.83;;
53411;SDS011;39307;52.870;13.660;2022-11-14T09:25:20;79.57;;;46.90;;
53411;SDS011;39307;52.870;13.660;2022-11-14T09:27:46;79.80;;;44.95;;
53411;SDS011;39307;52.870;13.660;2022-11-14T09:30:13;83.82;;;47.17;;
53411;SDS011;39307;52.870;13.660;2022-11-14T09:32:39;77.90;;;44.22;;
53411;SDS011;39307;52.870;13.660;2022-11-14T09:35:05;79.00;;;46.20;;
53411;SDS011;39307;52.870;13.660;2022-11-14T09:37:32;77.97;;;45.33;;
53411;SDS011;39307;52.870;13.660;2022-11-14T09:39:58;74.40;;;43.30;;
53411;SDS011;39307;52.870;13.660;2022-11-14T09:45:04;72.10;;;41.70;;
53411;SDS011;39307;52.870;13.660;2022-11-14T09:47:43;72.03;;;42.40;;
53411;SDS011;39307;52.870;13.660;2022-11-14T09:50:13;70.32;;;40.83;;
53411;SDS011;39307;52.870;13.660;2022-11-14T09:52:43;71.00;;;41.60;;
53411;SDS011;39307;52.870;13.660;2022-11-14T09:55:17;68.10;;;40.35;;
53411;SDS011;39307;52.870;13.660;2022-11-14T09:57:45;76.55;;;45.53;;
53411;SDS011;39307;52.870;13.660;2022-11-14T10:00:13;72.07;;;42.40;;
53411;SDS011;39307;52.870;13.660;2022-11-14T10:03:02;72.90;;;43.28;;
53411;SDS011;39307;52.870;13.660;2022-11-14T10:11:05;66.87;;;40.50;;
53411;SDS011;39307;52.870;13.660;2022-11-14T10:19:30;72.47;;;42.28;;
53411;SDS011;39307;52.870;13.660;2022-11-14T10:27:11;69.50;;;41.90;;
53411;SDS011;39307;52.870;13.660;2022-11-14T10:40:41;68.82;;;40.80;;
53411;SDS011;39307;52.870;13.660;2022-11-14T10:45:46;67.53;;;40.47;;
53411;SDS011;39307;52.870;13.660;2022-11-14T10:48:22;68.85;;;42.15;;
53411;SDS011;39307;52.870;13.660;2022-11-14T10:54:09;69.37;;;41.27;;
53411;SDS011;39307;52.870;13.660;2022-11-14T10:56:50;61.17;;;38.45;;
53411;SDS011;39307;52.870;13.660;2022-11-14T10:59:18;66.85;;;40.78;;
53411;SDS011;39307;52.870;13.660;2022-11-14T11:01:53;69.95;;;41.30;;
53411;SDS011;39307;52.870;13.660;2022-11-14T11:06:51;67.15;;;39.95;;
53411;SDS011;39307;52.870;13.660;2022-11-14T11:11:54;70.13;;;41.72;;
53411;SDS011;39307;52.870;13.660;2022-11-14T11:14:23;68.70;;;41.50;;
53411;SDS011;39307;52.870;13.660;2022-11-14T11:17:06;71.82;;;40.95;;
53411;SDS011;39307;52.870;13.660;2022-11-14T11:19:40;67.57;;;40.63;;
53411;SDS011;39307;52.870;13.660;2022-11-14T11:22:26;66.80;;;40.08;;
53411;SDS011;39307;52.870;13.660;2022-11-14T11:25:01;63.13;;;38.70;;
53411;SDS011;39307;52.870;13.660;2022-11-14T11:27:54;65.10;;;39.30;;
53411;SDS011;39307;52.870;13.660;2022-11-14T11:30:35;62.28;;;37.75;;
53411;SDS011;39307;52.870;13.660;2022-11-14T11:33:15;63.75;;;37.70;;
53411;SDS011;39307;52.870;13.660;2022-11-14T11:35:48;59.25;;;37.70;;
53411;SDS011;39307;52.870;13.660;2022-11-14T11:38:15;58.95;;;36.85;;
53411;SDS011;39307;52.870;13.660;2022-11-14T11:40:44;58.22;;;34.90;;
53411;SDS011;39307;52.870;13.660;2022-11-14T11:45:46;60.03;;;35.58;;
53411;SDS011;39307;52.870;13.660;2022-11-14T11:48:16;58.33;;;35.88;;
53411;SDS011;39307;52.870;13.660;2022-11-14T11:50:45;63.22;;;37.47;;
53411;SDS011;39307;52.870;13.660;2022-11-14T11:53:20;58.70;;;35.72;;
53411;SDS011;39307;52.870;13.660;2022-11-14T11:56:09;57.70;;;35.42;;
53411;SDS011;39307;52.870;13.660;2022-11-14T11:58:43;63.63;;;37.53;;
53411;SDS011;39307;52.870;13.660;2022-11-14T12:01:15;61.17;;;36.80;;
53411;SDS011;39307;52.870;13.660;2022-11-14T12:03:46;59.65;;;36.03;;
53411;SDS011;39307;52.870;13.660;2022-11-14T12:06:15;56.90;;;35.63;;
53411;SDS011;39307;52.870;13.660;2022-11-14T12:08:50;61.55;;;37.10;;
53411;SDS011;39307;52.870;13.660;2022-11-14T12:11:26;56.87;;;35.37;;
53411;SDS011;39307;52.870;13.660;2022-11-14T12:14:14;56.03;;;35.22;;
53411;SDS011;39307;52.870;13.660;2022-11-14T12:17:13;60.83;;;36.10;;
53411;SDS011;39307;52.870;13.660;2022-11-14T12:20:12;59.05;;;35.42;;
53411;SDS011;39307;52.870;13.660;2022-11-14T12:22:43;56.13;;;35.73;;
53411;SDS011;39307;52.870;13.660;2022-11-14T12:25:33;52.97;;;34.03;;
53411;SDS011;39307;52.870;13.660;2022-11-14T12:30:54;53.53;;;35.25;;
53411;SDS011;39307;52.870;13.660;2022-11-14T12:33:29;58.70;;;35.90;;
53411;SDS011;39307;52.870;13.660;2022-11-14T12:36:01;56.47;;;35.67;;
53411;SDS011;39307;52.870;13.660;2022-11-14T12:38:44;60.17;;;37.72;;
53411;SDS011;39307;52.870;13.660;2022-11-14T12:41:23;54.75;;;35.47;;
53411;SDS011;39307;52.870;13.660;2022-11-14T12:49:36;58.15;;;36.17;;
53411;SDS011;39307;52.870;13.660;2022-11-14T13:03:13;57.75;;;35.50;;
53411;SDS011;39307;52.870;13.660;2022-11-14T13:05:54;206.50;;;107.60;;
53411;SDS011;39307;52.870;13.660;2022-11-14T13:13:59;56.35;;;36.40;;
53411;SDS011;39307;52.870;13.660;2022-11-14T13:16:30;58.22;;;37.42;;
53411;SDS011;39307;52.870;13.660;2022-11-14T13:21:35;53.38;;;34.90;;
53411;SDS011;39307;52.870;13.660;2022-11-14T13:24:01;56.45;;;36.08;;
53411;SDS011;39307;52.870;13.660;2022-11-14T13:28:57;56.35;;;35.70;;
53411;SDS011;39307;52.870;13.660;2022-11-14T13:31:24;58.73;;;36.63;;
53411;SDS011;39307;52.870;13.660;2022-11-14T13:45:35;55.33;;;36.65;;
53411;SDS011;39307;52.870;13.660;2022-11-14T13:51:18;57.70;;;37.35;;
53411;SDS011;39307;52.870;13.660;2022-11-14T13:53:45;54.90;;;35.72;;
53411;SDS011;39307;52.870;13.660;2022-11-14T14:04:04;56.53;;;36.05;;
53411;SDS011;39307;52.870;13.660;2022-11-14T14:06:56;58.87;;;36.63;;
53411;SDS011;39307;52.870;13.660;2022-11-14T14:12:42;53.53;;;35.25;;
53411;SDS011;39307;52.870;13.660;2022-11-14T14:15:19;60.00;;;38.57;;
53411;SDS011;39307;52.870;13.660;2022-11-14T14:17:53;54.38;;;34.88;;
53411;SDS011;39307;52.870;13.660;2022-11-14T14:20:44;53.57;;;35.20;;
53411;SDS011;39307;52.870;13.660;2022-11-14T14:25:59;51.17;;;34.03;;
53411;SDS011;39307;52.870;13.660;2022-11-14T14:31:17;50.17;;;33.57;;
53411;SDS011;39307;52.870;13.660;2022-11-14T14:33:45;54.50;;;34.03;;
53411;SDS011;39307;52.870;13.660;2022-11-14T14:36:16;50.67;;;34.35;;
53411;SDS011;39307;52.870;13.660;2022-11-14T14:38:44;54.03;;;35.15;;
53411;SDS011;39307;52.870;13.660;2022-11-14T14:41:11;54.97;;;35.05;;
53411;SDS011;39307;52.870;13.660;2022-11-14T14:43:39;55.60;;;36.13;;
53411;SDS011;39307;52.870;13.660;2022-11-14T14:46:07;54.35;;;35.58;;
53411;SDS011;39307;52.870;13.660;2022-11-14T14:48:34;53.88;;;35.30;;
53411;SDS011;39307;52.870;13.660;2022-11-14T14:51:04;56.23;;;36.30;;
53411;SDS011;39307;52.870;13.660;2022-11-14T14:53:32;50.60;;;34.08;;
53411;SDS011;39307;52.870;13.660;2022-11-14T14:56:03;50.25;;;33.42;;
53411;SDS011;39307;52.870;13.660;2022-11-14T14:58:32;49.33;;;32.78;;
53411;SDS011;39307;52.870;13.660;2022-11-14T15:01:00;54.70;;;34.65;;
53411;SDS011;39307;52.870;13.660;2022-11-14T15:03:30;52.08;;;34.45;;
53411;SDS011;39307;52.870;13.660;2022-11-14T15:06:05;55.50;;;35.47;;
53411;SDS011;39307;52.870;13.660;2022-11-14T15:08:45;55.17;;;36.67;;
53411;SDS011;39307;52.870;13.660;2022-11-14T15:11:12;54.42;;;35.92;;
53411;SDS011;39307;52.870;13.660;2022-11-14T15:13:39;54.50;;;35.88;;
53411;SDS011;39307;52.870;13.660;2022-11-14T15:16:06;56.45;;;37.08;;
53411;SDS011;39307;52.870;13.660;2022-11-14T15:18:34;58.78;;;37.85;;
53411;SDS011;39307;52.870;13.660;2022-11-14T15:21:07;57.88;;;37.53;;
53411;SDS011;39307;52.870;13.660;2022-11-14T15:23:46;57.33;;;36.92;;
53411;SDS011;39307;52.870;13.660;2022-11-14T15:26:28;56.25;;;37.85;;
53411;SDS011;39307;52.870;13.660;2022-11-14T15:29:14;55.60;;;35.50;;
53411;SDS011;39307;52.870;13.660;2022-11-14T15:31:46;54.28;;;35.22;;
53411;SDS011;39307;52.870;13.660;2022-11-14T15:34:25;58.45;;;37.95;;
53411;SDS011;39307;52.870;13.660;2022-11-14T15:39:36;53.83;;;35.05;;
53411;SDS011;39307;52.870;13.660;2022-11-14T15:42:12;56.40;;;36.67;;
53411;SDS011;39307;52.870;13.660;2022-11-14T15:44:39;57.70;;;36.58;;
53411;SDS011;39307;52.870;13.660;2022-11-14T15:47:27;55.90;;;35.92;;
53411;SDS011;39307;52.870;13.660;2022-11-14T15:49:57;57.63;;;37.78;;
53411;SDS011;39307;52.870;13.660;2022-11-14T15:52:39;61.40;;;38.20;;
53411;SDS011;39307;52.870;13.660;2022-11-14T15:55:17;56.65;;;37.00;;
53411;SDS011;39307;52.870;13.660;2022-11-14T15:57:45;55.93;;;36.70;;
53411;SDS011;39307;52.870;13.660;2022-11-14T16:00:12;57.47;;;37.80;;
53411;SDS011;39307;52.870;13.660;2022-11-14T16:02:46;53.93;;;36.70;;
53411;SDS011;39307;52.870;13.660;2022-11-14T16:05:16;56.70;;;37.05;;
53411;SDS011;39307;52.870;13.660;2022-11-14T16:07:52;60.03;;;38.47;;